St.peterburg Pilot — UAMI — position and weather

sailwx.info

Track history (hours):
 
Tides and Currents Weather Stations Pressure Air Temp Water Temp Dewpoint Dewpoint Depression Visibility Wind Speed Wind Dir Waves Ship Positions

St.peterburg Pilot

Last reported at 2015-Jul-04 17:33 UTC. Time now 2015-Jul-07 00:17 UTC.
Position N 59°60' E 029°39'.

Length 59 m; draft 3.8 m.

Type: Pilot. MMSI: 273436530.

Date/timePositionNaut miles runAvg speedWind from/ knotsBaromVisibWave heightAir tempDewpointWater temp
2015-Jul-04 17:33N 59°60' E 029°39'2 0.6
2015-Jul-04 14:07N 59°59' E 029°42'0 0.0
2015-Jul-04 12:26N 59°59' E 029°42'0 0.0
2015-Jul-03 21:23N 59°59' E 029°42'0 0.0
2015-Jul-03 19:21N 59°59' E 029°42'0 0.0
2015-Jul-03 18:25N 59°59' E 029°42'0 0.0
2015-Jul-03 17:33N 59°59' E 029°42'0 0.0
2015-Jul-03 16:19N 59°59' E 029°42'0 0.0
2015-Jul-03 15:30N 59°59' E 029°42'0 0.0
2015-Jul-03 12:29N 59°59' E 029°42'0 0.0
2015-Jul-03 11:26N 59°59' E 029°42'1 0.3
2015-Jul-03 07:33N 60°00' E 029°43'73 5.6
2015-Jul-02 18:29N 60°03' E 027°16'7 3.3
2015-Jul-02 16:24N 60°01' E 027°02'0 0.0
2015-Jul-02 03:05N 60°01' E 027°02'80 2.6
2015-Jun-30 20:21N 59°59' E 029°42'0 0.0
2015-Jun-30 19:20N 59°59' E 029°42'0 0.0
2015-Jun-30 18:27N 59°59' E 029°42'0 0.0
2015-Jun-30 16:33N 59°59' E 029°42'0 0.0
2015-Jun-30 14:31N 59°59' E 029°42'9 9.1
2015-Jun-30 13:33N 59°56' E 029°58'8 7.6
2015-Jun-30 12:33N 59°54' E 030°13'0 0.1
2015-Jun-30 11:31N 59°54' E 030°13'0 0.0
2015-Jun-30 10:30N 59°54' E 030°13'0 0.0
2015-Jun-30 09:32N 59°54' E 030°13'0 0.0
2015-Jun-30 08:28N 59°54' E 030°13'0 0.0
2015-Jun-30 07:26N 59°54' E 030°13'0 0.0
2015-Jun-30 06:31N 59°54' E 030°13'0 0.0
2015-Jun-30 05:32N 59°54' E 030°13'0 0.0
2015-Jun-30 04:32N 59°54' E 030°13'0 0.0
2015-Jun-30 03:33N 59°54' E 030°13'0 0.0
2015-Jun-30 02:29N 59°54' E 030°13'0 0.0
2015-Jun-30 01:33N 59°54' E 030°13'0 0.0
2015-Jun-30 00:30N 59°54' E 030°13'0 0.0
2015-Jun-29 23:26N 59°54' E 030°13'0 0.0
2015-Jun-29 22:29N 59°54' E 030°13'0 0.0
2015-Jun-29 21:31N 59°54' E 030°13'0 0.0
2015-Jun-29 20:29N 59°54' E 030°13'0 0.0
2015-Jun-29 19:32N 59°54' E 030°13'0 0.0
2015-Jun-29 18:30N 59°54' E 030°13'0 0.0
2015-Jun-29 17:30N 59°54' E 030°13'0 0.0
2015-Jun-29 16:31N 59°54' E 030°13'0 0.0
2015-Jun-29 15:30N 59°54' E 030°13'0 0.0
2015-Jun-29 14:29N 59°54' E 030°13'1 0.6
2015-Jun-29 13:33N 59°54' E 030°14'0 0.2
2015-Jun-29 12:30N 59°55' E 030°14'0 0.0
2015-Jun-29 11:26N 59°55' E 030°14'0 0.0
2015-Jun-29 10:28N 59°55' E 030°14'0 0.0
2015-Jun-29 09:33N 59°55' E 030°14'0 0.0
2015-Jun-29 08:31N 59°55' E 030°14'0 0.0
2015-Jun-29 07:33N 59°55' E 030°14'0 0.0
2015-Jun-29 06:29N 59°55' E 030°14'0 0.0
2015-Jun-29 05:26N 59°55' E 030°14'0 0.0
2015-Jun-29 04:31N 59°55' E 030°14'0 0.0
2015-Jun-29 03:33N 59°55' E 030°14'0 0.0
2015-Jun-29 02:32N 59°55' E 030°14'0 0.0
2015-Jun-29 01:31N 59°55' E 030°14'0 0.0
2015-Jun-29 00:32N 59°55' E 030°14'0 0.0
2015-Jun-28 23:33N 59°55' E 030°14'0 0.0
2015-Jun-28 22:32N 59°55' E 030°14'0 0.0
2015-Jun-28 21:33N 59°55' E 030°14'0 0.0
2015-Jun-28 20:33N 59°55' E 030°14'0 0.0
2015-Jun-28 19:32N 59°55' E 030°14'0 0.0
2015-Jun-28 18:32N 59°55' E 030°14'0 0.0
2015-Jun-28 17:33N 59°55' E 030°14'0 0.0
2015-Jun-28 16:28N 59°55' E 030°14'0 0.0
2015-Jun-28 15:32N 59°55' E 030°14'0 0.0
2015-Jun-28 14:28N 59°55' E 030°14'0 0.0
2015-Jun-28 13:32N 59°55' E 030°14'0 0.0
2015-Jun-28 12:29N 59°55' E 030°14'0 0.0
2015-Jun-28 11:30N 59°55' E 030°14'0 0.0
2015-Jun-28 10:33N 59°55' E 030°14'0 0.0
2015-Jun-28 09:27N 59°55' E 030°14'0 0.0
2015-Jun-28 08:33N 59°55' E 030°14'0 0.0
2015-Jun-28 07:27N 59°55' E 030°14'0 0.0
2015-Jun-28 06:33N 59°55' E 030°14'0 0.0
2015-Jun-28 05:31N 59°55' E 030°14'0 0.0
2015-Jun-28 04:33N 59°55' E 030°14'0 0.0
2015-Jun-28 03:32N 59°55' E 030°14'0 0.0
2015-Jun-28 02:32N 59°55' E 030°14'0 0.0
2015-Jun-28 01:27N 59°55' E 030°14'0 0.0
2015-Jun-28 00:32N 59°55' E 030°14'0 0.0
2015-Jun-27 23:32N 59°55' E 030°14'0 0.0
2015-Jun-27 22:33N 59°55' E 030°14'0 0.0
2015-Jun-27 21:33N 59°55' E 030°14'0 0.0
2015-Jun-27 20:28N 59°55' E 030°14'0 0.0
2015-Jun-27 19:24N 59°55' E 030°14'0 0.0
2015-Jun-27 18:31N 59°55' E 030°14'0 0.0
2015-Jun-27 17:32N 59°55' E 030°14'0 0.0
2015-Jun-27 16:28N 59°55' E 030°14'0 0.0
2015-Jun-27 15:33N 59°55' E 030°14'0 0.0
2015-Jun-27 14:31N 59°55' E 030°14'0 0.0
2015-Jun-27 13:33N 59°55' E 030°14'0 0.0
2015-Jun-27 12:28N 59°55' E 030°14'0 0.0
2015-Jun-27 11:33N 59°55' E 030°14'0 0.0
2015-Jun-27 10:30N 59°55' E 030°14'0 0.0
2015-Jun-27 09:33N 59°55' E 030°14'0 0.0
2015-Jun-27 08:28N 59°55' E 030°14'0 0.0
2015-Jun-27 07:33N 59°55' E 030°14'0 0.0
2015-Jun-27 06:28N 59°55' E 030°14'0 0.0
2015-Jun-27 05:33N 59°55' E 030°14'0 0.0
2015-Jun-27 04:28N 59°55' E 030°14'0 0.0
2015-Jun-27 03:32N 59°55' E 030°14'0 0.0
2015-Jun-27 02:32N 59°55' E 030°14'0 0.0
2015-Jun-27 01:30N 59°55' E 030°14'0 0.0
2015-Jun-27 00:33N 59°55' E 030°14'0 0.0
2015-Jun-26 23:30N 59°55' E 030°14'0 0.0
2015-Jun-26 22:29N 59°55' E 030°14'0 0.0
2015-Jun-26 21:24N 59°55' E 030°14'0 0.0
2015-Jun-26 20:32N 59°55' E 030°14'0 0.0
2015-Jun-26 19:30N 59°55' E 030°14'0 0.0
2015-Jun-26 18:32N 59°55' E 030°14'0 0.0
2015-Jun-26 17:24N 59°55' E 030°14'0 0.0
2015-Jun-26 16:22N 59°55' E 030°14'0 0.0
2015-Jun-26 15:33N 59°55' E 030°14'0 0.0
2015-Jun-26 14:33N 59°55' E 030°14'0 0.0
2015-Jun-26 13:33N 59°55' E 030°14'0 0.0
2015-Jun-26 12:32N 59°55' E 030°14'0 0.0
2015-Jun-26 11:28N 59°55' E 030°14'  
Track history (hours):
 
Tides and Currents Weather Stations Pressure Air Temp Water Temp Dewpoint Dewpoint Depression Visibility Wind Speed Wind Dir Waves Ship Positions

St.peterburg Pilot

Last reported at 2015-Jul-04 17:33 UTC. Time now 2015-Jul-07 00:17 UTC.
Position N 59°60' E 029°39'.

Length 59 m; draft 3.8 m.

Type: Pilot. MMSI: 273436530.

Date/timePositionNaut miles runAvg speedWind from/ knotsBaromVisibWave heightAir tempDewpointWater temp
2015-Jul-04 17:33N 59°60' E 029°39'2 0.6
2015-Jul-04 14:07N 59°59' E 029°42'0 0.0
2015-Jul-04 12:26N 59°59' E 029°42'0 0.0
2015-Jul-03 21:23N 59°59' E 029°42'0 0.0
2015-Jul-03 19:21N 59°59' E 029°42'0 0.0
2015-Jul-03 18:25N 59°59' E 029°42'0 0.0
2015-Jul-03 17:33N 59°59' E 029°42'0 0.0
2015-Jul-03 16:19N 59°59' E 029°42'0 0.0
2015-Jul-03 15:30N 59°59' E 029°42'0 0.0
2015-Jul-03 12:29N 59°59' E 029°42'0 0.0
2015-Jul-03 11:26N 59°59' E 029°42'1 0.3
2015-Jul-03 07:33N 60°00' E 029°43'73 5.6
2015-Jul-02 18:29N 60°03' E 027°16'7 3.3
2015-Jul-02 16:24N 60°01' E 027°02'0 0.0
2015-Jul-02 03:05N 60°01' E 027°02'80 2.6
2015-Jun-30 20:21N 59°59' E 029°42'0 0.0
2015-Jun-30 19:20N 59°59' E 029°42'0 0.0
2015-Jun-30 18:27N 59°59' E 029°42'0 0.0
2015-Jun-30 16:33N 59°59' E 029°42'0 0.0
2015-Jun-30 14:31N 59°59' E 029°42'9 9.1
2015-Jun-30 13:33N 59°56' E 029°58'8 7.6
2015-Jun-30 12:33N 59°54' E 030°13'0 0.1
2015-Jun-30 11:31N 59°54' E 030°13'0 0.0
2015-Jun-30 10:30N 59°54' E 030°13'0 0.0
2015-Jun-30 09:32N 59°54' E 030°13'0 0.0
2015-Jun-30 08:28N 59°54' E 030°13'0 0.0
2015-Jun-30 07:26N 59°54' E 030°13'0 0.0
2015-Jun-30 06:31N 59°54' E 030°13'0 0.0
2015-Jun-30 05:32N 59°54' E 030°13'0 0.0
2015-Jun-30 04:32N 59°54' E 030°13'0 0.0
2015-Jun-30 03:33N 59°54' E 030°13'0 0.0
2015-Jun-30 02:29N 59°54' E 030°13'0 0.0
2015-Jun-30 01:33N 59°54' E 030°13'0 0.0
2015-Jun-30 00:30N 59°54' E 030°13'0 0.0
2015-Jun-29 23:26N 59°54' E 030°13'0 0.0
2015-Jun-29 22:29N 59°54' E 030°13'0 0.0
2015-Jun-29 21:31N 59°54' E 030°13'0 0.0
2015-Jun-29 20:29N 59°54' E 030°13'0 0.0
2015-Jun-29 19:32N 59°54' E 030°13'0 0.0
2015-Jun-29 18:30N 59°54' E 030°13'0 0.0
2015-Jun-29 17:30N 59°54' E 030°13'0 0.0
2015-Jun-29 16:31N 59°54' E 030°13'0 0.0
2015-Jun-29 15:30N 59°54' E 030°13'0 0.0
2015-Jun-29 14:29N 59°54' E 030°13'1 0.6
2015-Jun-29 13:33N 59°54' E 030°14'0 0.2
2015-Jun-29 12:30N 59°55' E 030°14'0 0.0
2015-Jun-29 11:26N 59°55' E 030°14'0 0.0
2015-Jun-29 10:28N 59°55' E 030°14'0 0.0
2015-Jun-29 09:33N 59°55' E 030°14'0 0.0
2015-Jun-29 08:31N 59°55' E 030°14'0 0.0
2015-Jun-29 07:33N 59°55' E 030°14'0 0.0
2015-Jun-29 06:29N 59°55' E 030°14'0 0.0
2015-Jun-29 05:26N 59°55' E 030°14'0 0.0
2015-Jun-29 04:31N 59°55' E 030°14'0 0.0
2015-Jun-29 03:33N 59°55' E 030°14'0 0.0
2015-Jun-29 02:32N 59°55' E 030°14'0 0.0
2015-Jun-29 01:31N 59°55' E 030°14'0 0.0
2015-Jun-29 00:32N 59°55' E 030°14'0 0.0
2015-Jun-28 23:33N 59°55' E 030°14'0 0.0
2015-Jun-28 22:32N 59°55' E 030°14'0 0.0
2015-Jun-28 21:33N 59°55' E 030°14'0 0.0
2015-Jun-28 20:33N 59°55' E 030°14'0 0.0
2015-Jun-28 19:32N 59°55' E 030°14'0 0.0
2015-Jun-28 18:32N 59°55' E 030°14'0 0.0
2015-Jun-28 17:33N 59°55' E 030°14'0 0.0
2015-Jun-28 16:28N 59°55' E 030°14'0 0.0
2015-Jun-28 15:32N 59°55' E 030°14'0 0.0
2015-Jun-28 14:28N 59°55' E 030°14'0 0.0
2015-Jun-28 13:32N 59°55' E 030°14'0 0.0
2015-Jun-28 12:29N 59°55' E 030°14'0 0.0
2015-Jun-28 11:30N 59°55' E 030°14'0 0.0
2015-Jun-28 10:33N 59°55' E 030°14'0 0.0
2015-Jun-28 09:27N 59°55' E 030°14'0 0.0
2015-Jun-28 08:33N 59°55' E 030°14'0 0.0
2015-Jun-28 07:27N 59°55' E 030°14'0 0.0
2015-Jun-28 06:33N 59°55' E 030°14'0 0.0
2015-Jun-28 05:31N 59°55' E 030°14'0 0.0
2015-Jun-28 04:33N 59°55' E 030°14'0 0.0
2015-Jun-28 03:32N 59°55' E 030°14'0 0.0
2015-Jun-28 02:32N 59°55' E 030°14'0 0.0
2015-Jun-28 01:27N 59°55' E 030°14'0 0.0
2015-Jun-28 00:32N 59°55' E 030°14'0 0.0
2015-Jun-27 23:32N 59°55' E 030°14'0 0.0
2015-Jun-27 22:33N 59°55' E 030°14'0 0.0
2015-Jun-27 21:33N 59°55' E 030°14'0 0.0
2015-Jun-27 20:28N 59°55' E 030°14'0 0.0
2015-Jun-27 19:24N 59°55' E 030°14'0 0.0
2015-Jun-27 18:31N 59°55' E 030°14'0 0.0
2015-Jun-27 17:32N 59°55' E 030°14'0 0.0
2015-Jun-27 16:28N 59°55' E 030°14'0 0.0
2015-Jun-27 15:33N 59°55' E 030°14'0 0.0
2015-Jun-27 14:31N 59°55' E 030°14'0 0.0
2015-Jun-27 13:33N 59°55' E 030°14'0 0.0
2015-Jun-27 12:28N 59°55' E 030°14'0 0.0
2015-Jun-27 11:33N 59°55' E 030°14'0 0.0
2015-Jun-27 10:30N 59°55' E 030°14'0 0.0
2015-Jun-27 09:33N 59°55' E 030°14'0 0.0
2015-Jun-27 08:28N 59°55' E 030°14'0 0.0
2015-Jun-27 07:33N 59°55' E 030°14'0 0.0
2015-Jun-27 06:28N 59°55' E 030°14'0 0.0
2015-Jun-27 05:33N 59°55' E 030°14'0 0.0
2015-Jun-27 04:28N 59°55' E 030°14'0 0.0
2015-Jun-27 03:32N 59°55' E 030°14'0 0.0
2015-Jun-27 02:32N 59°55' E 030°14'0 0.0
2015-Jun-27 01:30N 59°55' E 030°14'0 0.0
2015-Jun-27 00:33N 59°55' E 030°14'0 0.0
2015-Jun-26 23:30N 59°55' E 030°14'0 0.0
2015-Jun-26 22:29N 59°55' E 030°14'0 0.0
2015-Jun-26 21:24N 59°55' E 030°14'0 0.0
2015-Jun-26 20:32N 59°55' E 030°14'0 0.0
2015-Jun-26 19:30N 59°55' E 030°14'0 0.0
2015-Jun-26 18:32N 59°55' E 030°14'0 0.0
2015-Jun-26 17:24N 59°55' E 030°14'0 0.0
2015-Jun-26 16:22N 59°55' E 030°14'0 0.0
2015-Jun-26 15:33N 59°55' E 030°14'0 0.0
2015-Jun-26 14:33N 59°55' E 030°14'0 0.0
2015-Jun-26 13:33N 59°55' E 030°14'0 0.0
2015-Jun-26 12:32N 59°55' E 030°14'0 0.0
2015-Jun-26 11:28N 59°55' E 030°14'  

Dump ship's entire track history